sensor_id;sensor_type;location;lat;lon;timestamp;pressure;altitude;pressure_sealevel;temperature;humidity
25947;BME280;13745;51.470;9.894;2023-03-18T00:00:45;98658.31;;;16.54;46.95
25947;BME280;13745;51.470;9.894;2023-03-18T00:03:31;98655.69;;;16.54;47.11
25947;BME280;13745;51.470;9.894;2023-03-18T00:06:17;98659.13;;;16.56;47.38
25947;BME280;13745;51.470;9.894;2023-03-18T00:09:04;98656.50;;;16.56;47.26
25947;BME280;13745;51.470;9.894;2023-03-18T00:11:50;98647.72;;;16.57;46.96
25947;BME280;13745;51.470;9.894;2023-03-18T00:14:37;98647.72;;;16.57;47.13
25947;BME280;13745;51.470;9.894;2023-03-18T00:17:22;98659.78;;;16.60;47.16
25947;BME280;13745;51.470;9.894;2023-03-18T00:20:08;98658.94;;;16.59;47.05
25947;BME280;13745;51.470;9.894;2023-03-18T00:22:55;98664.09;;;16.61;47.28
25947;BME280;13745;51.470;9.894;2023-03-18T00:25:42;98664.19;;;16.59;47.13
25947;BME280;13745;51.470;9.894;2023-03-18T00:28:28;98667.56;;;16.61;47.29
25947;BME280;13745;51.470;9.894;2023-03-18T00:31:14;98662.25;;;16.63;47.50
25947;BME280;13745;51.470;9.894;2023-03-18T00:33:59;98664.09;;;16.61;47.43
25947;BME280;13745;51.470;9.894;2023-03-18T00:36:44;98662.41;;;16.60;47.23
25947;BME280;13745;51.470;9.894;2023-03-18T00:39:31;98658.09;;;16.58;47.09
25947;BME280;13745;51.470;9.894;2023-03-18T00:42:18;98660.81;;;16.57;47.56
25947;BME280;13745;51.470;9.894;2023-03-18T00:45:04;98666.03;;;16.57;47.54
25947;BME280;13745;51.470;9.894;2023-03-18T00:47:50;98669.50;;;16.57;47.52
25947;BME280;13745;51.470;9.894;2023-03-18T00:50:38;98664.47;;;16.53;47.60
25947;BME280;13745;51.470;9.894;2023-03-18T00:53:24;98666.41;;;16.49;47.66
25947;BME280;13745;51.470;9.894;2023-03-18T00:56:10;98670.81;;;16.49;47.58
25947;BME280;13745;51.470;9.894;2023-03-18T00:58:57;98675.28;;;16.47;47.88
25947;BME280;13745;51.470;9.894;2023-03-18T01:01:43;98679.69;;;16.45;47.88
25947;BME280;13745;51.470;9.894;2023-03-18T01:04:28;98671.84;;;16.45;47.60
25947;BME280;13745;51.470;9.894;2023-03-18T01:07:13;98667.53;;;16.44;47.65
25947;BME280;13745;51.470;9.894;2023-03-18T01:09:58;98674.47;;;16.45;47.92
25947;BME280;13745;51.470;9.894;2023-03-18T01:12:43;98665.78;;;16.44;48.12
25947;BME280;13745;51.470;9.894;2023-03-18T01:15:30;98669.25;;;16.45;48.31
25947;BME280;13745;51.470;9.894;2023-03-18T01:18:17;98672.88;;;16.42;48.25
25947;BME280;13745;51.470;9.894;2023-03-18T01:21:03;98678.94;;;16.43;48.05
25947;BME280;13745;51.470;9.894;2023-03-18T01:23:53;98678.94;;;16.43;48.23
25947;BME280;13745;51.470;9.894;2023-03-18T01:26:38;98681.63;;;16.41;48.20
25947;BME280;13745;51.470;9.894;2023-03-18T01:29:23;98685.09;;;16.42;48.27
25947;BME280;13745;51.470;9.894;2023-03-18T01:32:10;98689.47;;;16.41;48.37
25947;BME280;13745;51.470;9.894;2023-03-18T01:34:56;98682.41;;;16.43;48.32
25947;BME280;13745;51.470;9.894;2023-03-18T01:37:43;98686.78;;;16.43;48.55
25947;BME280;13745;51.470;9.894;2023-03-18T01:40:32;98692.94;;;16.42;48.43
25947;BME280;13745;51.470;9.894;2023-03-18T01:43:21;98691.09;;;16.44;48.92
25947;BME280;13745;51.470;9.894;2023-03-18T01:46:38;98691.84;;;16.46;48.51
25947;BME280;13745;51.470;9.894;2023-03-18T01:49:27;98687.72;;;16.42;48.90
25947;BME280;13745;51.470;9.894;2023-03-18T01:52:18;98693.72;;;16.44;48.70
25947;BME280;13745;51.470;9.894;2023-03-18T01:55:07;98703.25;;;16.45;48.87
25947;BME280;13745;51.470;9.894;2023-03-18T01:57:54;98695.47;;;16.43;48.83
25947;BME280;13745;51.470;9.894;2023-03-18T02:00:43;98698.09;;;16.43;49.03
25947;BME280;13745;51.470;9.894;2023-03-18T02:03:32;98696.41;;;16.42;49.04
25947;BME280;13745;51.470;9.894;2023-03-18T02:06:19;98703.41;;;16.42;49.28
25947;BME280;13745;51.470;9.894;2023-03-18T02:09:12;98698.25;;;16.40;49.45
25947;BME280;13745;51.470;9.894;2023-03-18T02:12:00;98696.56;;;16.39;49.27
25947;BME280;13745;51.470;9.894;2023-03-18T02:14:47;98693.16;;;16.37;48.95
25947;BME280;13745;51.470;9.894;2023-03-18T02:17:34;98694.16;;;16.35;49.68
25947;BME280;13745;51.470;9.894;2023-03-18T02:20:33;98701.91;;;16.36;49.93
25947;BME280;13745;51.470;9.894;2023-03-18T02:23:25;98698.38;;;16.37;49.78
25947;BME280;13745;51.470;9.894;2023-03-18T02:26:19;98709.78;;;16.36;49.82
25947;BME280;13745;51.470;9.894;2023-03-18T02:29:11;98702.69;;;16.38;49.85
25947;BME280;13745;51.470;9.894;2023-03-18T02:32:07;98708.81;;;16.39;49.88
25947;BME280;13745;51.470;9.894;2023-03-18T02:34:52;98707.78;;;16.41;50.07
25947;BME280;13745;51.470;9.894;2023-03-18T02:37:39;98704.25;;;16.42;50.08
25947;BME280;13745;51.470;9.894;2023-03-18T02:40:28;98704.94;;;16.46;50.44
25947;BME280;13745;51.470;9.894;2023-03-18T02:43:18;98706.59;;;16.48;50.58
25947;BME280;13745;51.470;9.894;2023-03-18T02:46:22;98721.28;;;16.51;50.57
25947;BME280;13745;51.470;9.894;2023-03-18T02:49:11;98713.34;;;16.52;50.65
25947;BME280;13745;51.470;9.894;2023-03-18T02:51:57;98720.28;;;16.53;50.77
25947;BME280;13745;51.470;9.894;2023-03-18T02:54:42;98721.97;;;16.54;50.94
25947;BME280;13745;51.470;9.894;2023-03-18T02:57:28;98720.28;;;16.53;51.08
25947;BME280;13745;51.470;9.894;2023-03-18T03:00:15;98711.50;;;16.54;51.58
25947;BME280;13745;51.470;9.894;2023-03-18T03:03:02;98713.34;;;16.52;52.01
25947;BME280;13745;51.470;9.894;2023-03-18T03:05:48;98723.91;;;16.51;52.05
25947;BME280;13745;51.470;9.894;2023-03-18T03:08:34;98714.34;;;16.50;52.44
25947;BME280;13745;51.470;9.894;2023-03-18T03:11:21;98726.66;;;16.48;52.85
25947;BME280;13745;51.470;9.894;2023-03-18T03:14:08;98729.41;;;16.45;53.15
25947;BME280;13745;51.470;9.894;2023-03-18T03:16:55;98729.56;;;16.42;53.55
25947;BME280;13745;51.470;9.894;2023-03-18T03:19:42;98737.56;;;16.39;53.96
25947;BME280;13745;51.470;9.894;2023-03-18T03:22:27;98734.25;;;16.35;54.42
25947;BME280;13745;51.470;9.894;2023-03-18T03:25:13;98732.63;;;16.33;54.65
25947;BME280;13745;51.470;9.894;2023-03-18T03:27:58;98737.97;;;16.29;54.65
25947;BME280;13745;51.470;9.894;2023-03-18T03:30:44;98735.53;;;16.26;55.10
25947;BME280;13745;51.470;9.894;2023-03-18T03:33:30;98741.84;;;16.22;55.59
25947;BME280;13745;51.470;9.894;2023-03-18T03:36:17;98749.72;;;16.21;55.93
25947;BME280;13745;51.470;9.894;2023-03-18T03:39:03;98755.88;;;16.20;56.31
25947;BME280;13745;51.470;9.894;2023-03-18T03:41:52;98754.41;;;16.14;56.76
25947;BME280;13745;51.470;9.894;2023-03-18T03:44:37;98752.00;;;16.10;56.79
25947;BME280;13745;51.470;9.894;2023-03-18T03:47:23;98747.84;;;16.06;56.85
25947;BME280;13745;51.470;9.894;2023-03-18T03:50:10;98739.41;;;15.99;56.98
25947;BME280;13745;51.470;9.894;2023-03-18T03:52:56;98736.22;;;15.92;57.22
25947;BME280;13745;51.470;9.894;2023-03-18T03:55:43;98739.13;;;15.86;57.35
25947;BME280;13745;51.470;9.894;2023-03-18T03:58:29;98741.16;;;15.80;57.92
25947;BME280;13745;51.470;9.894;2023-03-18T04:01:14;98745.69;;;15.76;57.71
25947;BME280;13745;51.470;9.894;2023-03-18T04:04:01;98747.63;;;15.71;57.86
25947;BME280;13745;51.470;9.894;2023-03-18T04:06:50;98740.09;;;15.65;57.99
25947;BME280;13745;51.470;9.894;2023-03-18T04:09:36;98745.47;;;15.60;58.06
25947;BME280;13745;51.470;9.894;2023-03-18T04:12:21;98750.00;;;15.57;58.45
25947;BME280;13745;51.470;9.894;2023-03-18T04:15:13;98745.75;;;15.54;58.56
25947;BME280;13745;51.470;9.894;2023-03-18T04:18:02;98761.47;;;15.53;59.00
25947;BME280;13745;51.470;9.894;2023-03-18T04:20:50;98752.03;;;15.50;59.01
25947;BME280;13745;51.470;9.894;2023-03-18T04:23:53;98761.63;;;15.50;59.08
25947;BME280;13745;51.470;9.894;2023-03-18T04:26:40;98760.97;;;15.44;59.29
25947;BME280;13745;51.470;9.894;2023-03-18T04:29:26;98757.50;;;15.44;59.32
25947;BME280;13745;51.470;9.894;2023-03-18T04:32:12;98767.94;;;15.44;59.24
25947;BME280;13745;51.470;9.894;2023-03-18T04:34:58;98762.94;;;15.39;59.22
25947;BME280;13745;51.470;9.894;2023-03-18T04:37:43;98763.91;;;15.37;59.47
25947;BME280;13745;51.470;9.894;2023-03-18T04:40:29;98767.66;;;15.31;59.93
25947;BME280;13745;51.470;9.894;2023-03-18T04:43:16;98757.38;;;15.27;59.89
25947;BME280;13745;51.470;9.894;2023-03-18T04:46:04;98760.13;;;15.24;60.17
25947;BME280;13745;51.470;9.894;2023-03-18T04:48:50;98763.66;;;15.23;60.31
25947;BME280;13745;51.470;9.894;2023-03-18T04:51:35;98756.72;;;15.22;60.47
25947;BME280;13745;51.470;9.894;2023-03-18T04:54:22;98769.00;;;15.20;60.48
25947;BME280;13745;51.470;9.894;2023-03-18T04:57:11;98767.31;;;15.18;60.73
25947;BME280;13745;51.470;9.894;2023-03-18T05:00:06;98756.94;;;15.17;61.04
25947;BME280;13745;51.470;9.894;2023-03-18T05:02:54;98766.53;;;15.16;60.94
25947;BME280;13745;51.470;9.894;2023-03-18T05:05:41;98769.22;;;15.15;60.67
25947;BME280;13745;51.470;9.894;2023-03-18T05:08:29;98764.88;;;15.14;61.49
25947;BME280;13745;51.470;9.894;2023-03-18T05:11:17;98771.84;;;15.13;61.33
25947;BME280;13745;51.470;9.894;2023-03-18T05:14:03;98767.56;;;15.12;61.18
25947;BME280;13745;51.470;9.894;2023-03-18T05:16:57;98763.25;;;15.11;61.38
25947;BME280;13745;51.470;9.894;2023-03-18T05:19:45;98768.47;;;15.11;61.47
25947;BME280;13745;51.470;9.894;2023-03-18T05:22:36;98763.25;;;15.11;61.30
25947;BME280;13745;51.470;9.894;2023-03-18T05:25:30;98763.19;;;15.13;61.33
25947;BME280;13745;51.470;9.894;2023-03-18T05:28:15;98763.25;;;15.11;61.43
25947;BME280;13745;51.470;9.894;2023-03-18T05:31:09;98757.19;;;15.11;61.13
25947;BME280;13745;51.470;9.894;2023-03-18T05:33:59;98759.84;;;15.09;61.69
25947;BME280;13745;51.470;9.894;2023-03-18T05:36:48;98755.56;;;15.08;61.55
25947;BME280;13745;51.470;9.894;2023-03-18T05:39:34;98762.53;;;15.08;61.41
25947;BME280;13745;51.470;9.894;2023-03-18T05:42:22;98762.47;;;15.09;61.13
25947;BME280;13745;51.470;9.894;2023-03-18T05:45:07;98766.84;;;15.09;61.40
25947;BME280;13745;51.470;9.894;2023-03-18T05:48:00;98759.00;;;15.09;61.40
25947;BME280;13745;51.470;9.894;2023-03-18T05:50:52;98758.16;;;15.08;61.36
25947;BME280;13745;51.470;9.894;2023-03-18T05:53:41;98765.94;;;15.10;61.21
25947;BME280;13745;51.470;9.894;2023-03-18T05:56:36;98775.59;;;15.08;61.23
25947;BME280;13745;51.470;9.894;2023-03-18T05:59:23;98778.28;;;15.06;61.38
25947;BME280;13745;51.470;9.894;2023-03-18T06:02:13;98779.06;;;15.08;61.01
25947;BME280;13745;51.470;9.894;2023-03-18T06:04:58;98780.88;;;15.06;61.17
25947;BME280;13745;51.470;9.894;2023-03-18T06:07:45;98791.34;;;15.05;61.14
25947;BME280;13745;51.470;9.894;2023-03-18T06:10:31;98789.66;;;15.04;60.94
25947;BME280;13745;51.470;9.894;2023-03-18T06:13:18;98786.34;;;15.00;61.10
25947;BME280;13745;51.470;9.894;2023-03-18T06:16:03;98787.34;;;14.98;61.38
25947;BME280;13745;51.470;9.894;2023-03-18T06:18:50;98796.03;;;14.97;61.08
25947;BME280;13745;51.470;9.894;2023-03-18T06:21:36;98806.47;;;14.97;61.40
25947;BME280;13745;51.470;9.894;2023-03-18T06:24:23;98816.06;;;14.96;61.31
25947;BME280;13745;51.470;9.894;2023-03-18T06:27:08;98809.06;;;14.98;61.27
25947;BME280;13745;51.470;9.894;2023-03-18T06:29:55;98810.69;;;15.01;61.29
25947;BME280;13745;51.470;9.894;2023-03-18T06:32:41;98814.13;;;15.01;61.39
25947;BME280;13745;51.470;9.894;2023-03-18T06:35:26;98817.53;;;15.03;61.62
25947;BME280;13745;51.470;9.894;2023-03-18T06:38:12;98813.06;;;15.07;61.41
25947;BME280;13745;51.470;9.894;2023-03-18T06:40:59;98815.38;;;15.13;61.49
25947;BME280;13745;51.470;9.894;2023-03-18T06:43:47;98810.84;;;15.18;61.55
25947;BME280;13745;51.470;9.894;2023-03-18T06:46:33;98813.28;;;15.23;61.70
25947;BME280;13745;51.470;9.894;2023-03-18T06:49:20;98806.94;;;15.28;61.89
25947;BME280;13745;51.470;9.894;2023-03-18T06:52:12;98818.97;;;15.32;61.68
25947;BME280;13745;51.470;9.894;2023-03-18T06:55:00;98821.38;;;15.37;61.80
25947;BME280;13745;51.470;9.894;2023-03-18T06:57:47;98822.09;;;15.40;62.12
25947;BME280;13745;51.470;9.894;2023-03-18T07:00:36;98820.97;;;15.46;61.67
25947;BME280;13745;51.470;9.894;2023-03-18T07:03:28;98817.13;;;15.55;61.68
25947;BME280;13745;51.470;9.894;2023-03-18T07:06:13;98835.13;;;15.62;61.59
25947;BME280;13745;51.470;9.894;2023-03-18T07:09:00;98845.13;;;15.73;61.35
25947;BME280;13745;51.470;9.894;2023-03-18T07:11:46;98834.97;;;15.86;61.08
25947;BME280;13745;51.470;9.894;2023-03-18T07:14:37;98834.47;;;15.98;61.13
25947;BME280;13745;51.470;9.894;2023-03-18T07:17:23;98841.66;;;16.12;61.23
25947;BME280;13745;51.470;9.894;2023-03-18T07:20:09;98848.13;;;16.23;60.93
25947;BME280;13745;51.470;9.894;2023-03-18T07:22:54;98845.78;;;16.36;60.94
25947;BME280;13745;51.470;9.894;2023-03-18T07:25:39;98860.09;;;16.48;60.98
25947;BME280;13745;51.470;9.894;2023-03-18T07:28:24;98859.59;;;16.58;60.74
25947;BME280;13745;51.470;9.894;2023-03-18T07:31:12;98846.81;;;16.71;60.68
25947;BME280;13745;51.470;9.894;2023-03-18T07:33:57;98852.41;;;16.82;60.65
25947;BME280;13745;51.470;9.894;2023-03-18T07:36:42;98850.00;;;16.97;60.48
25947;BME280;13745;51.470;9.894;2023-03-18T07:39:28;98852.75;;;17.11;60.80
25947;BME280;13745;51.470;9.894;2023-03-18T07:42:13;98857.25;;;17.26;60.73
25947;BME280;13745;51.470;9.894;2023-03-18T07:45:03;98855.41;;;17.46;60.21
25947;BME280;13745;51.470;9.894;2023-03-18T07:47:50;98861.38;;;17.66;60.57
25947;BME280;13745;51.470;9.894;2023-03-18T07:50:35;98876.19;;;17.85;60.02
25947;BME280;13745;51.470;9.894;2023-03-18T07:53:20;98868.16;;;18.05;59.31
25947;BME280;13745;51.470;9.894;2023-03-18T07:56:07;98859.84;;;18.30;59.37
25947;BME280;13745;51.470;9.894;2023-03-18T07:58:52;98868.19;;;18.54;58.98
25947;BME280;13745;51.470;9.894;2023-03-18T08:01:37;98866.00;;;18.78;58.65
25947;BME280;13745;51.470;9.894;2023-03-18T08:04:24;98870.16;;;18.98;58.33
25947;BME280;13745;51.470;9.894;2023-03-18T08:07:10;98861.94;;;19.20;58.00
25947;BME280;13745;51.470;9.894;2023-03-18T08:09:55;98872.72;;;19.45;57.71
25947;BME280;13745;51.470;9.894;2023-03-18T08:12:41;98878.44;;;19.68;57.39
25947;BME280;13745;51.470;9.894;2023-03-18T08:15:26;98876.91;;;19.93;57.48
25947;BME280;13745;51.470;9.894;2023-03-18T08:18:12;98871.31;;;20.14;57.08
25947;BME280;13745;51.470;9.894;2023-03-18T08:20:58;98878.91;;;20.33;56.34
25947;BME280;13745;51.470;9.894;2023-03-18T08:23:43;98883.47;;;20.45;56.19
25947;BME280;13745;51.470;9.894;2023-03-18T08:26:29;98885.44;;;20.56;56.22
25947;BME280;13745;51.470;9.894;2023-03-18T08:29:15;98887.75;;;20.74;56.08
25947;BME280;13745;51.470;9.894;2023-03-18T08:32:00;98895.34;;;20.93;55.82
25947;BME280;13745;51.470;9.894;2023-03-18T08:34:45;98895.13;;;21.11;55.41
25947;BME280;13745;51.470;9.894;2023-03-18T08:37:31;98889.91;;;21.23;54.96
25947;BME280;13745;51.470;9.894;2023-03-18T08:40:19;98897.69;;;21.39;54.67
25947;BME280;13745;51.470;9.894;2023-03-18T08:43:04;98901.31;;;21.51;54.16
25947;BME280;13745;51.470;9.894;2023-03-18T08:45:51;98888.16;;;21.64;54.02
25947;BME280;13745;51.470;9.894;2023-03-18T08:48:37;98883.88;;;21.88;54.12
25947;BME280;13745;51.470;9.894;2023-03-18T08:51:23;98879.69;;;22.24;53.22
25947;BME280;13745;51.470;9.894;2023-03-18T08:54:09;98884.69;;;22.78;52.91
25947;BME280;13745;51.470;9.894;2023-03-18T08:56:54;98882.94;;;23.50;52.29
25947;BME280;13745;51.470;9.894;2023-03-18T08:59:40;98885.53;;;24.33;51.12
25947;BME280;13745;51.470;9.894;2023-03-18T09:02:25;98886.25;;;25.23;50.02
25947;BME280;13745;51.470;9.894;2023-03-18T09:05:11;98874.41;;;26.12;48.57
25947;BME280;13745;51.470;9.894;2023-03-18T09:07:57;98878.81;;;26.94;47.51
25947;BME280;13745;51.470;9.894;2023-03-18T09:10:45;98876.69;;;27.76;45.92
25947;BME280;13745;51.470;9.894;2023-03-18T09:13:30;98882.50;;;28.65;45.02
25947;BME280;13745;51.470;9.894;2023-03-18T09:16:15;98888.41;;;29.59;43.73
25947;BME280;13745;51.470;9.894;2023-03-18T09:19:01;98891.53;;;30.42;100.00
25947;BME280;13745;51.470;9.894;2023-03-18T09:21:46;60756.69;;;-143.79;100.00
25947;BME280;13745;51.470;9.894;2023-03-18T09:24:31;60756.69;;;-143.79;100.00
25947;BME280;13745;51.470;9.894;2023-03-18T09:27:19;60756.69;;;-143.79;100.00
25947;BME280;13745;51.470;9.894;2023-03-18T09:30:05;60756.69;;;-143.79;100.00
25947;BME280;13745;51.470;9.894;2023-03-18T09:32:50;60756.69;;;-143.79;100.00
25947;BME280;13745;51.470;9.894;2023-03-18T09:35:35;60756.69;;;-143.79;100.00
25947;BME280;13745;51.470;9.894;2023-03-18T09:38:21;60756.69;;;-143.79;100.00
25947;BME280;13745;51.470;9.894;2023-03-18T09:41:17;60756.69;;;-143.79;100.00
25947;BME280;13745;51.470;9.894;2023-03-18T09:44:13;60756.69;;;-143.79;100.00
25947;BME280;13745;51.470;9.894;2023-03-18T09:47:11;60756.69;;;-143.79;100.00
25947;BME280;13745;51.470;9.894;2023-03-18T09:50:14;60756.69;;;-143.79;100.00
25947;BME280;13745;51.470;9.894;2023-03-18T09:53:15;60756.69;;;-143.79;100.00
25947;BME280;13745;51.470;9.894;2023-03-18T09:56:05;60756.69;;;-143.79;100.00
25947;BME280;13745;51.470;9.894;2023-03-18T09:58:56;60756.69;;;-143.79;100.00
25947;BME280;13745;51.470;9.894;2023-03-18T10:01:46;60756.69;;;-143.79;100.00
25947;BME280;13745;51.470;9.894;2023-03-18T10:04:38;60756.69;;;-143.79;100.00
25947;BME280;13745;51.470;9.894;2023-03-18T10:07:27;60756.69;;;-143.79;100.00
25947;BME280;13745;51.470;9.894;2023-03-18T10:10:20;60756.69;;;-143.79;100.00
25947;BME280;13745;51.470;9.894;2023-03-18T10:13:12;60756.69;;;-143.79;100.00
25947;BME280;13745;51.470;9.894;2023-03-18T10:16:02;60756.69;;;-143.79;100.00
25947;BME280;13745;51.470;9.894;2023-03-18T10:18:50;60756.69;;;-143.79;100.00
25947;BME280;13745;51.470;9.894;2023-03-18T10:21:41;60756.69;;;-143.79;100.00
25947;BME280;13745;51.470;9.894;2023-03-18T10:24:34;60756.69;;;-143.79;100.00
25947;BME280;13745;51.470;9.894;2023-03-18T10:27:28;60756.69;;;-143.79;100.00
25947;BME280;13745;51.470;9.894;2023-03-18T10:30:45;60756.69;;;-143.79;100.00
25947;BME280;13745;51.470;9.894;2023-03-18T10:33:36;60756.69;;;-143.79;100.00
25947;BME280;13745;51.470;9.894;2023-03-18T10:36:31;60756.69;;;-143.79;100.00
25947;BME280;13745;51.470;9.894;2023-03-18T10:39:22;60756.69;;;-143.79;100.00
25947;BME280;13745;51.470;9.894;2023-03-18T10:42:18;60756.69;;;-143.79;100.00
25947;BME280;13745;51.470;9.894;2023-03-18T10:45:08;60756.69;;;-143.79;100.00
25947;BME280;13745;51.470;9.894;2023-03-18T10:48:04;60756.69;;;-143.79;100.00
25947;BME280;13745;51.470;9.894;2023-03-18T10:51:02;60756.69;;;-143.79;100.00
25947;BME280;13745;51.470;9.894;2023-03-18T10:53:55;60756.69;;;-143.79;100.00
25947;BME280;13745;51.470;9.894;2023-03-18T10:56:42;60756.69;;;-143.79;100.00
25947;BME280;13745;51.470;9.894;2023-03-18T10:59:28;60756.69;;;-143.79;100.00
25947;BME280;13745;51.470;9.894;2023-03-18T11:02:16;60756.69;;;-143.79;100.00
25947;BME280;13745;51.470;9.894;2023-03-18T11:05:13;60756.69;;;-143.79;100.00
25947;BME280;13745;51.470;9.894;2023-03-18T11:08:01;60756.69;;;-143.79;100.00
25947;BME280;13745;51.470;9.894;2023-03-18T11:10:49;60756.69;;;-143.79;100.00
25947;BME280;13745;51.470;9.894;2023-03-18T11:13:34;60756.69;;;-143.79;100.00
25947;BME280;13745;51.470;9.894;2023-03-18T11:16:30;60756.69;;;-143.79;100.00
25947;BME280;13745;51.470;9.894;2023-03-18T11:19:27;60756.69;;;-143.79;100.00
25947;BME280;13745;51.470;9.894;2023-03-18T11:22:18;60756.69;;;-143.79;100.00
25947;BME280;13745;51.470;9.894;2023-03-18T11:25:12;60756.69;;;-143.79;100.00
25947;BME280;13745;51.470;9.894;2023-03-18T11:28:02;60756.69;;;-143.79;100.00
25947;BME280;13745;51.470;9.894;2023-03-18T11:30:49;60756.69;;;-143.79;100.00
25947;BME280;13745;51.470;9.894;2023-03-18T11:33:35;60756.69;;;-143.79;100.00
25947;BME280;13745;51.470;9.894;2023-03-18T11:36:23;60756.69;;;-143.79;100.00
25947;BME280;13745;51.470;9.894;2023-03-18T11:39:17;60756.69;;;-143.79;100.00
25947;BME280;13745;51.470;9.894;2023-03-18T11:42:15;60756.69;;;-143.79;100.00
25947;BME280;13745;51.470;9.894;2023-03-18T11:45:07;60756.69;;;-143.79;100.00
25947;BME280;13745;51.470;9.894;2023-03-18T11:48:14;60756.69;;;-143.79;100.00
25947;BME280;13745;51.470;9.894;2023-03-18T11:51:32;60756.69;;;-143.79;100.00
25947;BME280;13745;51.470;9.894;2023-03-18T11:54:41;60756.69;;;-143.79;100.00
25947;BME280;13745;51.470;9.894;2023-03-18T11:57:36;60756.69;;;-143.79;100.00
25947;BME280;13745;51.470;9.894;2023-03-18T12:00:31;60756.69;;;-143.79;100.00
25947;BME280;13745;51.470;9.894;2023-03-18T12:03:50;60756.69;;;-143.79;100.00
25947;BME280;13745;51.470;9.894;2023-03-18T12:06:43;60756.69;;;-143.79;100.00
25947;BME280;13745;51.470;9.894;2023-03-18T12:09:40;60756.69;;;-143.79;100.00
25947;BME280;13745;51.470;9.894;2023-03-18T12:12:41;60756.69;;;-143.79;100.00
25947;BME280;13745;51.470;9.894;2023-03-18T12:15:42;60756.69;;;-143.79;100.00
25947;BME280;13745;51.470;9.894;2023-03-18T12:18:39;60756.69;;;-143.79;100.00
25947;BME280;13745;51.470;9.894;2023-03-18T12:21:47;60756.69;;;-143.79;100.00
25947;BME280;13745;51.470;9.894;2023-03-18T12:24:49;60756.69;;;-143.79;100.00
25947;BME280;13745;51.470;9.894;2023-03-18T12:27:43;60756.69;;;-143.79;100.00
25947;BME280;13745;51.470;9.894;2023-03-18T12:30:48;60756.69;;;-143.79;100.00
25947;BME280;13745;51.470;9.894;2023-03-18T12:33:45;60756.69;;;-143.79;100.00
25947;BME280;13745;51.470;9.894;2023-03-18T12:36:45;60756.69;;;-143.79;100.00
25947;BME280;13745;51.470;9.894;2023-03-18T12:39:52;60756.69;;;-143.79;100.00
25947;BME280;13745;51.470;9.894;2023-03-18T12:42:53;60756.69;;;-143.79;100.00
25947;BME280;13745;51.470;9.894;2023-03-18T12:45:46;60756.69;;;-143.79;100.00
25947;BME280;13745;51.470;9.894;2023-03-18T12:48:38;60756.69;;;-143.79;100.00
25947;BME280;13745;51.470;9.894;2023-03-18T12:51:29;60756.69;;;-143.79;100.00
25947;BME280;13745;51.470;9.894;2023-03-18T12:54:22;60756.69;;;-143.79;100.00
25947;BME280;13745;51.470;9.894;2023-03-18T12:57:12;60756.69;;;-143.79;100.00
25947;BME280;13745;51.470;9.894;2023-03-18T13:00:02;60756.69;;;-143.79;100.00
25947;BME280;13745;51.470;9.894;2023-03-18T13:03:03;60756.69;;;-143.79;100.00
25947;BME280;13745;51.470;9.894;2023-03-18T13:05:54;60756.69;;;-143.79;100.00
25947;BME280;13745;51.470;9.894;2023-03-18T13:08:50;60756.69;;;-143.79;100.00
25947;BME280;13745;51.470;9.894;2023-03-18T13:11:49;60756.69;;;-143.79;100.00
25947;BME280;13745;51.470;9.894;2023-03-18T13:14:43;60756.69;;;-143.79;100.00
25947;BME280;13745;51.470;9.894;2023-03-18T13:17:34;60756.69;;;-143.79;100.00
25947;BME280;13745;51.470;9.894;2023-03-18T13:20:25;60756.69;;;-143.79;100.00
25947;BME280;13745;51.470;9.894;2023-03-18T13:23:17;60756.69;;;-143.79;100.00
25947;BME280;13745;51.470;9.894;2023-03-18T13:26:09;60756.69;;;-143.79;100.00
25947;BME280;13745;51.470;9.894;2023-03-18T13:29:11;60756.69;;;-143.79;100.00
25947;BME280;13745;51.470;9.894;2023-03-18T13:32:13;60756.69;;;-143.79;100.00
25947;BME280;13745;51.470;9.894;2023-03-18T13:35:23;60756.69;;;-143.79;100.00
25947;BME280;13745;51.470;9.894;2023-03-18T13:42:13;60756.69;;;-143.79;100.00
25947;BME280;13745;51.470;9.894;2023-03-18T13:45:05;60756.69;;;-143.79;100.00
25947;BME280;13745;51.470;9.894;2023-03-18T13:47:58;60756.69;;;-143.79;100.00
25947;BME280;13745;51.470;9.894;2023-03-18T13:50:48;60756.69;;;-143.79;100.00
25947;BME280;13745;51.470;9.894;2023-03-18T13:53:39;60756.69;;;-143.79;100.00
25947;BME280;13745;51.470;9.894;2023-03-18T13:56:31;60756.69;;;-143.79;100.00
25947;BME280;13745;51.470;9.894;2023-03-18T13:59:42;60756.69;;;-143.79;100.00
25947;BME280;13745;51.470;9.894;2023-03-18T14:02:42;60756.69;;;-143.79;100.00
25947;BME280;13745;51.470;9.894;2023-03-18T14:05:39;60756.69;;;-143.79;100.00
25947;BME280;13745;51.470;9.894;2023-03-18T14:08:47;60756.69;;;-143.79;100.00
25947;BME280;13745;51.470;9.894;2023-03-18T14:11:48;60756.69;;;-143.79;100.00
25947;BME280;13745;51.470;9.894;2023-03-18T14:14:54;60756.69;;;-143.79;100.00
25947;BME280;13745;51.470;9.894;2023-03-18T14:17:46;60756.69;;;-143.79;100.00
25947;BME280;13745;51.470;9.894;2023-03-18T14:20:37;60756.69;;;-143.79;100.00
25947;BME280;13745;51.470;9.894;2023-03-18T14:23:37;60756.69;;;-143.79;100.00
25947;BME280;13745;51.470;9.894;2023-03-18T14:26:24;60756.69;;;-143.79;100.00
25947;BME280;13745;51.470;9.894;2023-03-18T14:29:15;60756.69;;;-143.79;100.00
25947;BME280;13745;51.470;9.894;2023-03-18T14:32:35;60756.69;;;-143.79;100.00
25947;BME280;13745;51.470;9.894;2023-03-18T14:35:25;60756.69;;;-143.79;100.00
25947;BME280;13745;51.470;9.894;2023-03-18T14:38:14;60756.69;;;-143.79;100.00
25947;BME280;13745;51.470;9.894;2023-03-18T14:41:12;60756.69;;;-143.79;100.00
25947;BME280;13745;51.470;9.894;2023-03-18T14:44:10;60756.69;;;-143.79;100.00
25947;BME280;13745;51.470;9.894;2023-03-18T14:47:03;60756.69;;;-143.79;100.00
25947;BME280;13745;51.470;9.894;2023-03-18T14:49:51;60756.69;;;-143.79;100.00
25947;BME280;13745;51.470;9.894;2023-03-18T14:52:40;60756.69;;;-143.79;100.00